Time;durP1;ratioP1;P1;durP2;ratioP2;P2;SDS_P1;SDS_P2;PMS_P1;PMS_P2;Temp;Humidity;BMP_temperature;BMP_pressure;BME280_temperature;BME280_humidity;BME280_pressure;Samples;Min_cycle;Max_cycle;Signal;HPM_P1;HPM_P2
2023/03/18 00:00:46;;;;;;;13.30;5.85;;;;;;;;;;5126091;27;20513;-47
2023/03/18 00:03:12;;;;;;;11.82;5.90;;;;;;;;;;5108950;27;20024;-47
2023/03/18 00:05:40;;;;;;;7.22;3.60;;;;;;;;;;5126124;27;20518;-48
2023/03/18 00:08:06;;;;;;;6.18;3.10;;;;;;;;;;5109831;27;20027;-47
2023/03/18 00:10:33;;;;;;;11.45;3.20;;;;;;;;;;5113391;27;20087;-50
2023/03/18 00:13:00;;;;;;;6.45;2.67;;;;;;;;;;5112117;27;20070;-50
2023/03/18 00:15:27;;;;;;;5.40;2.67;;;;;;;;;;5105100;28;20024;-49
2023/03/18 00:17:53;;;;;;;6.70;3.33;;;;;;;;;;5104511;28;20026;-47
2023/03/18 00:20:27;;;;;;;5.43;3.00;;;;;;;;;;5105911;28;20553;-49
2023/03/18 00:22:54;;;;;;;9.00;3.28;;;;;;;;;;5104298;28;20043;-52
2023/03/18 00:25:20;;;;;;;7.22;3.40;;;;;;;;;;5105522;28;20016;-48
2023/03/18 00:27:47;;;;;;;8.15;3.58;;;;;;;;;;5103788;28;20055;-48
2023/03/18 00:30:13;;;;;;;6.28;3.17;;;;;;;;;;5105456;28;20057;-47
2023/03/18 00:32:40;;;;;;;6.43;3.25;;;;;;;;;;5104943;28;20067;-48
2023/03/18 00:35:06;;;;;;;5.43;3.20;;;;;;;;;;5105754;28;20103;-48
2023/03/18 00:37:34;;;;;;;5.28;3.45;;;;;;;;;;5105809;28;20580;-50
2023/03/18 00:40:05;;;;;;;7.13;3.67;;;;;;;;;;5105778;28;20031;-47
2023/03/18 00:42:37;;;;;;;6.72;3.80;;;;;;;;;;5105647;28;20020;-49
2023/03/18 00:45:04;;;;;;;6.40;4.07;;;;;;;;;;5105873;28;20024;-47
2023/03/18 00:47:30;;;;;;;7.00;3.70;;;;;;;;;;5105028;28;20505;-47
2023/03/18 00:49:58;;;;;;;8.35;3.30;;;;;;;;;;5105025;28;20031;-48
2023/03/18 00:52:24;;;;;;;5.40;3.30;;;;;;;;;;5105534;28;20107;-48
2023/03/18 00:54:50;;;;;;;5.78;3.50;;;;;;;;;;5106121;28;20016;-50
2023/03/18 00:57:17;;;;;;;8.20;3.80;;;;;;;;;;5105486;28;20556;-48
2023/03/18 00:59:43;;;;;;;7.13;3.72;;;;;;;;;;5105902;28;20070;-48
2023/03/18 01:02:09;;;;;;;8.00;3.40;;;;;;;;;;5105157;28;20024;-48
2023/03/18 01:04:35;;;;;;;6.28;3.63;;;;;;;;;;5105577;28;20039;-47
2023/03/18 06:13:09;;;;;;;5.00;2.80;;;;;;;;;;5109749;28;20561;-48
2023/03/18 06:15:36;;;;;;;4.30;2.78;;;;;;;;;;5109861;28;20035;-46
2023/03/18 06:18:03;;;;;;;3.90;2.70;;;;;;;;;;5110345;28;20024;-48
2023/03/18 06:20:29;;;;;;;5.22;2.92;;;;;;;;;;5127975;27;20429;-48
2023/03/18 06:22:55;;;;;;;4.15;2.65;;;;;;;;;;5130929;27;20105;-47
2023/03/18 06:25:22;;;;;;;5.25;2.85;;;;;;;;;;5130601;27;20569;-47
2023/03/18 06:27:48;;;;;;;4.45;2.70;;;;;;;;;;5130916;27;20030;-47
2023/03/18 06:30:15;;;;;;;5.43;2.58;;;;;;;;;;5130564;27;20030;-47
2023/03/18 06:32:42;;;;;;;4.38;2.80;;;;;;;;;;5130663;27;20107;-46
2023/03/18 06:35:09;;;;;;;3.90;2.75;;;;;;;;;;5130584;27;20031;-49
2023/03/18 06:37:35;;;;;;;5.00;3.00;;;;;;;;;;5130190;27;20031;-47
2023/03/18 06:40:02;;;;;;;4.47;2.95;;;;;;;;;;5129748;27;20019;-49
2023/03/18 06:42:28;;;;;;;4.60;2.80;;;;;;;;;;5131019;27;20628;-49
2023/03/18 06:44:54;;;;;;;4.80;2.95;;;;;;;;;;5130363;27;20408;-48
2023/03/18 06:47:21;;;;;;;5.03;3.00;;;;;;;;;;5130130;27;20088;-49
2023/03/18 06:49:48;;;;;;;5.05;3.03;;;;;;;;;;5131752;27;20027;-50
2023/03/18 06:52:14;;;;;;;3.78;2.50;;;;;;;;;;5131649;27;20023;-50
2023/03/18 06:54:41;;;;;;;3.63;2.67;;;;;;;;;;5131123;27;20023;-47
2023/03/18 06:57:07;;;;;;;3.80;2.60;;;;;;;;;;5130544;27;20037;-47
2023/03/18 06:59:33;;;;;;;5.03;2.65;;;;;;;;;;5131051;27;20102;-48
2023/03/18 07:01:59;;;;;;;5.63;2.97;;;;;;;;;;5124872;27;20028;-47
2023/03/18 07:04:25;;;;;;;4.43;2.60;;;;;;;;;;5131423;27;20047;-46
2023/03/18 07:06:51;;;;;;;4.13;2.53;;;;;;;;;;5131125;27;20470;-51
2023/03/18 07:09:18;;;;;;;3.97;2.45;;;;;;;;;;5131038;27;20054;-47
2023/03/18 07:11:45;;;;;;;3.88;2.38;;;;;;;;;;5127059;27;20049;-47
2023/03/18 07:14:13;;;;;;;4.15;2.45;;;;;;;;;;5130415;27;20030;-51
2023/03/18 07:16:40;;;;;;;4.45;2.85;;;;;;;;;;5130156;27;20115;-49
2023/03/18 07:19:06;;;;;;;4.10;2.65;;;;;;;;;;5130831;27;20076;-48
2023/03/18 07:21:32;;;;;;;3.97;2.55;;;;;;;;;;5130687;27;20033;-48
2023/03/18 07:23:58;;;;;;;3.90;2.60;;;;;;;;;;5130924;27;20056;-51
2023/03/18 07:26:25;;;;;;;5.53;2.97;;;;;;;;;;5130403;27;20027;-47
2023/03/18 07:28:51;;;;;;;5.32;3.05;;;;;;;;;;5130425;27;20087;-48
2023/03/18 07:31:17;;;;;;;3.33;2.10;;;;;;;;;;5130936;27;20106;-49
2023/03/18 07:33:43;;;;;;;2.72;2.08;;;;;;;;;;5129166;27;20079;-48
2023/03/18 07:36:09;;;;;;;3.53;2.20;;;;;;;;;;5129712;27;20059;-47
2023/03/18 07:38:35;;;;;;;3.30;2.20;;;;;;;;;;5130256;27;20034;-48
2023/03/18 07:41:01;;;;;;;2.75;1.80;;;;;;;;;;5130344;27;20435;-50
2023/03/18 07:43:27;;;;;;;3.08;2.00;;;;;;;;;;5129937;27;20671;-47
2023/03/18 07:45:54;;;;;;;3.25;2.05;;;;;;;;;;5130077;27;20521;-47
2023/03/18 07:48:20;;;;;;;3.40;1.98;;;;;;;;;;5111635;27;20498;-47
2023/03/18 07:50:46;;;;;;;4.30;2.75;;;;;;;;;;5130164;27;20089;-48
2023/03/18 07:53:13;;;;;;;3.63;2.25;;;;;;;;;;5129535;27;20043;-48
2023/03/18 07:55:40;;;;;;;3.97;2.38;;;;;;;;;;5130078;27;20042;-50
2023/03/18 07:58:07;;;;;;;3.17;2.30;;;;;;;;;;5129335;27;20426;-48
2023/03/18 08:00:34;;;;;;;4.85;3.03;;;;;;;;;;5130003;27;20030;-48
2023/03/18 08:03:00;;;;;;;5.63;3.33;;;;;;;;;;5129872;27;20384;-47
2023/03/18 08:05:26;;;;;;;6.07;3.55;;;;;;;;;;5130284;27;20031;-48
2023/03/18 08:07:53;;;;;;;8.43;4.53;;;;;;;;;;5130020;27;20050;-48
2023/03/18 08:10:19;;;;;;;8.38;4.68;;;;;;;;;;5130203;27;20441;-51
2023/03/18 08:12:45;;;;;;;9.07;5.22;;;;;;;;;;5129765;27;20669;-47
2023/03/18 08:15:11;;;;;;;8.27;4.07;;;;;;;;;;5129789;27;20045;-47
2023/03/18 08:17:38;;;;;;;11.55;6.07;;;;;;;;;;5128021;27;20106;-49
2023/03/18 08:20:05;;;;;;;8.77;4.78;;;;;;;;;;5129060;27;20031;-49
2023/03/18 08:22:31;;;;;;;10.85;5.75;;;;;;;;;;5129348;27;20083;-49
2023/03/18 08:24:57;;;;;;;8.90;4.97;;;;;;;;;;5129693;27;20053;-48
2023/03/18 08:27:23;;;;;;;8.80;5.05;;;;;;;;;;5129083;27;20099;-47
2023/03/18 08:29:49;;;;;;;7.43;4.53;;;;;;;;;;5129356;27;20546;-47
2023/03/18 08:32:16;;;;;;;9.07;4.88;;;;;;;;;;5129772;27;20540;-49
2023/03/18 08:34:42;;;;;;;9.50;4.60;;;;;;;;;;5129543;27;20513;-50
2023/03/18 08:37:09;;;;;;;9.10;5.57;;;;;;;;;;5128973;27;20049;-51
2023/03/18 08:39:35;;;;;;;9.07;5.03;;;;;;;;;;5129142;27;20513;-51
2023/03/18 08:42:04;;;;;;;11.60;6.50;;;;;;;;;;5128807;27;20023;-50
2023/03/18 08:44:30;;;;;;;11.68;6.78;;;;;;;;;;5129148;27;20027;-49
2023/03/18 08:46:56;;;;;;;13.18;7.20;;;;;;;;;;5129268;27;20781;-49
2023/03/18 08:49:24;;;;;;;12.55;7.45;;;;;;;;;;5128152;27;20189;-48
2023/03/18 08:51:51;;;;;;;12.27;7.32;;;;;;;;;;5127424;27;20236;-47
2023/03/18 08:54:17;;;;;;;12.70;6.97;;;;;;;;;;5127462;27;20537;-47
2023/03/18 08:56:43;;;;;;;13.23;6.85;;;;;;;;;;5126823;27;20027;-48
2023/03/18 08:59:09;;;;;;;11.27;6.32;;;;;;;;;;5127532;28;20558;-48
2023/03/18 09:01:36;;;;;;;13.25;6.85;;;;;;;;;;5125408;28;20020;-49
2023/03/18 09:04:02;;;;;;;14.35;7.85;;;;;;;;;;5129017;28;20030;-48
2023/03/18 09:06:29;;;;;;;13.95;7.57;;;;;;;;;;5128576;28;20027;-49
2023/03/18 09:08:55;;;;;;;14.63;8.38;;;;;;;;;;5128657;27;20027;-49
2023/03/18 09:11:21;;;;;;;13.27;7.22;;;;;;;;;;5133054;27;20067;-49
2023/03/18 09:13:47;;;;;;;11.68;6.45;;;;;;;;;;5132148;27;20120;-47
2023/03/18 09:16:13;;;;;;;11.20;6.40;;;;;;;;;;5132804;27;20053;-50
2023/03/18 09:18:40;;;;;;;10.90;5.38;;;;;;;;;;5133057;27;20144;-50
2023/03/18 09:21:07;;;;;;;10.40;6.00;;;;;;;;;;5132405;27;20019;-51
2023/03/18 09:23:33;;;;;;;9.60;5.63;;;;;;;;;;5130958;27;20028;-48
2023/03/18 09:26:01;;;;;;;13.00;7.30;;;;;;;;;;5132359;27;20019;-47
2023/03/18 09:28:28;;;;;;;12.00;6.97;;;;;;;;;;5131660;27;20493;-47
2023/03/18 09:30:54;;;;;;;11.27;5.53;;;;;;;;;;5131292;27;20027;-46
2023/03/18 09:33:21;;;;;;;7.95;4.97;;;;;;;;;;5131235;27;20035;-47
2023/03/18 09:35:48;;;;;;;9.25;5.50;;;;;;;;;;5131637;27;20027;-48
2023/03/18 09:38:18;;;;;;;10.60;6.07;;;;;;;;;;5131038;27;20066;-47
2023/03/18 09:40:51;;;;;;;10.50;5.95;;;;;;;;;;5110686;28;20503;-46
2023/03/18 09:43:28;;;;;;;10.32;6.13;;;;;;;;;;5111271;27;20054;-47
2023/03/18 09:46:05;;;;;;;10.57;6.05;;;;;;;;;;5110650;28;20312;-50
2023/03/18 09:48:33;;;;;;;11.52;7.13;;;;;;;;;;5110503;28;20034;-46
2023/03/18 09:51:15;;;;;;;9.90;5.70;;;;;;;;;;5124833;27;20015;-47
2023/03/18 09:53:53;;;;;;;11.75;6.32;;;;;;;;;;5127700;27;20080;-48
2023/03/18 09:56:25;;;;;;;11.40;6.32;;;;;;;;;;5128197;27;20026;-48
2023/03/18 09:58:52;;;;;;;10.75;6.43;;;;;;;;;;5128454;27;20557;-46
2023/03/18 10:01:20;;;;;;;10.48;6.10;;;;;;;;;;5130369;27;20015;-51
2023/03/18 10:03:53;;;;;;;9.57;5.63;;;;;;;;;;5128254;27;20031;-48
2023/03/18 10:06:21;;;;;;;10.93;6.35;;;;;;;;;;5131027;27;20027;-50
2023/03/18 10:09:06;;;;;;;11.68;6.75;;;;;;;;;;5128475;27;20568;-48
2023/03/18 10:11:38;;;;;;;11.68;6.82;;;;;;;;;;5129799;27;20027;-46
2023/03/18 10:14:23;;;;;;;10.57;6.28;;;;;;;;;;5127737;27;20111;-48
2023/03/18 10:17:02;;;;;;;12.88;6.70;;;;;;;;;;5130255;27;20024;-45
2023/03/18 10:19:29;;;;;;;10.13;5.97;;;;;;;;;;5129066;27;20034;-46
2023/03/18 10:22:04;;;;;;;10.85;6.45;;;;;;;;;;5129776;27;20353;-49
2023/03/18 10:24:46;;;;;;;11.80;5.70;;;;;;;;;;5127905;27;20030;-48
2023/03/18 10:27:21;;;;;;;9.88;6.22;;;;;;;;;;5129663;27;20031;-50
2023/03/18 10:30:03;;;;;;;10.88;6.13;;;;;;;;;;5129202;27;20076;-46
2023/03/18 10:32:35;;;;;;;11.02;6.35;;;;;;;;;;5128083;27;20031;-48
2023/03/18 10:35:21;;;;;;;11.30;6.05;;;;;;;;;;5128350;27;20039;-49
2023/03/18 10:37:50;;;;;;;9.65;5.32;;;;;;;;;;5077546;27;20043;-47
2023/03/18 10:40:18;;;;;;;10.73;5.95;;;;;;;;;;5128819;27;20051;-50
2023/03/18 10:42:44;;;;;;;10.43;5.80;;;;;;;;;;5128476;27;20031;-50
2023/03/18 10:45:16;;;;;;;11.82;6.07;;;;;;;;;;5125800;27;20096;-48
2023/03/18 10:47:45;;;;;;;10.63;6.13;;;;;;;;;;5126753;27;20067;-45
2023/03/18 10:50:14;;;;;;;9.27;5.55;;;;;;;;;;5129050;27;20518;-49
2023/03/18 10:52:46;;;;;;;12.32;6.15;;;;;;;;;;5128166;27;20034;-48
2023/03/18 10:55:15;;;;;;;8.55;5.53;;;;;;;;;;5128360;27;20031;-46
2023/03/18 10:57:41;;;;;;;8.77;5.05;;;;;;;;;;5127583;27;20048;-48
2023/03/18 11:00:33;;;;;;;9.02;4.80;;;;;;;;;;5128745;27;21032;-48
2023/03/18 11:03:00;;;;;;;7.20;4.25;;;;;;;;;;5125091;27;20027;-47
2023/03/18 11:05:28;;;;;;;7.47;4.30;;;;;;;;;;5128966;27;20482;-47
2023/03/18 11:07:58;;;;;;;7.47;4.70;;;;;;;;;;5128578;27;20027;-49
2023/03/18 11:10:27;;;;;;;8.90;4.30;;;;;;;;;;5128337;27;20066;-47
2023/03/18 11:13:01;;;;;;;9.23;5.28;;;;;;;;;;5125998;27;20099;-52
2023/03/18 11:15:27;;;;;;;7.65;5.05;;;;;;;;;;5108063;27;20383;-47
2023/03/18 11:17:57;;;;;;;8.85;5.35;;;;;;;;;;5129234;27;20052;-51
2023/03/18 11:20:30;;;;;;;9.68;5.18;;;;;;;;;;5127962;27;20498;-47
2023/03/18 11:23:10;;;;;;;7.28;4.68;;;;;;;;;;5128565;27;20048;-46
2023/03/18 11:25:36;;;;;;;9.65;4.65;;;;;;;;;;5128498;27;20026;-47
2023/03/18 11:28:04;;;;;;;8.00;4.43;;;;;;;;;;5130403;27;20088;-49
2023/03/18 11:30:34;;;;;;;7.20;4.55;;;;;;;;;;5129583;27;20034;-51
2023/03/18 11:33:10;;;;;;;7.68;4.90;;;;;;;;;;5128847;27;20093;-49
2023/03/18 11:35:36;;;;;;;10.02;5.45;;;;;;;;;;5127554;27;20063;-48
2023/03/18 11:38:03;;;;;;;11.63;5.88;;;;;;;;;;5128963;27;20037;-47
2023/03/18 11:40:30;;;;;;;12.45;6.00;;;;;;;;;;5127121;27;20409;-50
2023/03/18 11:42:59;;;;;;;13.30;6.30;;;;;;;;;;5128802;27;20042;-48
2023/03/18 11:45:26;;;;;;;10.88;5.80;;;;;;;;;;5127244;27;20015;-49
2023/03/18 11:47:53;;;;;;;11.50;5.93;;;;;;;;;;5129291;27;20412;-47
2023/03/18 11:50:24;;;;;;;11.23;5.88;;;;;;;;;;5128895;27;20115;-49
2023/03/18 11:53:00;;;;;;;9.93;5.88;;;;;;;;;;5129893;27;20138;-46
2023/03/18 11:55:26;;;;;;;9.07;5.30;;;;;;;;;;5128603;27;20027;-51
2023/03/18 11:58:04;;;;;;;8.52;4.90;;;;;;;;;;5130196;27;20049;-50
2023/03/18 12:00:33;;;;;;;7.57;4.80;;;;;;;;;;5128676;27;20076;-50
2023/03/18 12:03:18;;;;;;;7.90;4.45;;;;;;;;;;5129416;27;20497;-50
2023/03/18 12:06:04;;;;;;;7.13;4.13;;;;;;;;;;5109076;27;20030;-52
2023/03/18 12:08:45;;;;;;;10.60;4.63;;;;;;;;;;5127167;27;20027;-51
2023/03/18 12:11:31;;;;;;;8.50;4.10;;;;;;;;;;5100589;28;20410;-50
2023/03/18 12:14:10;;;;;;;6.68;4.10;;;;;;;;;;5128077;27;20027;-49
2023/03/18 12:16:50;;;;;;;7.68;4.80;;;;;;;;;;5127326;27;20027;-50
2023/03/18 12:19:26;;;;;;;9.23;4.75;;;;;;;;;;5107710;28;20055;-48
2023/03/18 12:21:52;;;;;;;7.68;4.10;;;;;;;;;;5127400;27;20023;-48
2023/03/18 12:24:37;;;;;;;5.07;3.33;;;;;;;;;;5127953;27;20073;-46
2023/03/18 12:27:19;;;;;;;4.63;2.90;;;;;;;;;;5128054;27;20023;-47
2023/03/18 12:30:05;;;;;;;5.40;3.53;;;;;;;;;;5128150;27;20067;-48
2023/03/18 12:32:42;;;;;;;5.68;3.40;;;;;;;;;;5128030;27;20513;-48
2023/03/18 12:35:14;;;;;;;4.20;2.85;;;;;;;;;;5121498;27;20023;-49
2023/03/18 12:37:46;;;;;;;4.85;3.33;;;;;;;;;;5127839;27;20027;-49
2023/03/18 12:40:31;;;;;;;3.28;2.35;;;;;;;;;;5126889;27;20023;-46
2023/03/18 12:43:07;;;;;;;4.28;2.72;;;;;;;;;;5127996;27;20044;-47
2023/03/18 12:45:35;;;;;;;4.90;2.97;;;;;;;;;;5125174;27;20027;-51
2023/03/18 12:48:14;;;;;;;4.68;2.85;;;;;;;;;;5122831;27;20027;-50
2023/03/18 12:50:46;;;;;;;5.70;2.97;;;;;;;;;;5126841;27;20027;-49
2023/03/18 12:53:25;;;;;;;5.55;3.42;;;;;;;;;;5122939;27;20023;-48
2023/03/18 12:55:54;;;;;;;5.93;2.97;;;;;;;;;;5126216;27;20035;-50
2023/03/18 12:58:23;;;;;;;6.28;3.03;;;;;;;;;;5125854;27;20098;-51
2023/03/18 13:01:05;;;;;;;6.40;3.10;;;;;;;;;;5126804;27;20027;-51
2023/03/18 13:03:31;;;;;;;4.68;2.55;;;;;;;;;;5126029;27;20107;-49
2023/03/18 13:06:04;;;;;;;4.35;2.75;;;;;;;;;;5126252;28;20281;-47
2023/03/18 13:08:36;;;;;;;7.68;3.05;;;;;;;;;;5124555;28;20019;-50
2023/03/18 13:11:04;;;;;;;4.18;2.60;;;;;;;;;;5125269;28;20049;-46
2023/03/18 13:13:32;;;;;;;4.45;2.88;;;;;;;;;;5124825;28;20034;-49
2023/03/18 13:16:00;;;;;;;3.10;2.25;;;;;;;;;;5095653;28;20120;-47
2023/03/18 13:18:32;;;;;;;4.15;2.45;;;;;;;;;;5085882;28;20032;-51
2023/03/18 13:20:59;;;;;;;5.10;2.10;;;;;;;;;;5086274;28;20044;-49
2023/03/18 13:23:43;;;;;;;3.20;2.25;;;;;;;;;;5085907;28;20020;-51
2023/03/18 13:26:09;;;;;;;;;;;;;;;;;;5095777;28;20543;-46
2023/03/18 13:28:38;;;;;;;4.25;2.30;;;;;;;;;;5119568;28;19964;-49
2023/03/18 13:31:42;;;;;;;3.60;2.35;;;;;;;;;;5125682;28;20035;-49
2023/03/18 13:34:25;;;;;;;2.70;1.83;;;;;;;;;;4997966;28;20458;-46
2023/03/18 13:36:56;;;;;;;5.05;2.60;;;;;;;;;;5001367;28;20418;-51
2023/03/18 13:39:22;;;;;;;3.70;2.35;;;;;;;;;;5065684;28;20048;-51
2023/03/18 13:42:07;;;;;;;3.85;2.38;;;;;;;;;;5122162;27;20596;-50
2023/03/18 13:44:40;;;;;;;4.28;2.20;;;;;;;;;;5107488;28;20027;-46
2023/03/18 13:47:08;;;;;;;3.22;1.80;;;;;;;;;;5121005;28;20023;-47
2023/03/18 13:49:35;;;;;;;3.40;1.92;;;;;;;;;;5107396;28;20076;-50
2023/03/18 13:52:03;;;;;;;2.97;1.98;;;;;;;;;;5089575;28;20036;-49
2023/03/18 13:54:47;;;;;;;4.03;1.95;;;;;;;;;;5104152;27;20517;-50
2023/03/18 13:57:29;;;;;;;3.20;1.85;;;;;;;;;;5096660;27;20027;-48
2023/03/18 14:00:13;;;;;;;4.40;2.55;;;;;;;;;;5108839;28;20049;-46
2023/03/18 14:02:44;;;;;;;6.15;2.88;;;;;;;;;;5107730;27;20649;-50
2023/03/18 14:05:42;;;;;;;5.65;2.70;;;;;;;;;;5107872;28;20441;-46
2023/03/18 14:08:27;;;;;;;4.97;2.85;;;;;;;;;;5048531;28;20119;-48
2023/03/18 14:11:12;;;;;;;4.30;2.53;;;;;;;;;;5108764;28;20024;-49
2023/03/18 14:13:38;;;;;;;3.63;2.55;;;;;;;;;;5107581;27;20030;-50
2023/03/18 14:16:09;;;;;;;5.53;2.65;;;;;;;;;;5110485;27;20106;-48
2023/03/18 14:18:36;;;;;;;4.65;2.60;;;;;;;;;;5125636;27;20019;-49
2023/03/18 14:21:04;;;;;;;4.13;2.40;;;;;;;;;;5128815;27;20102;-48
2023/03/18 14:23:35;;;;;;;4.07;2.50;;;;;;;;;;5124404;27;20514;-49
2023/03/18 14:26:03;;;;;;;4.18;2.67;;;;;;;;;;5128746;27;20436;-50
2023/03/18 14:28:35;;;;;;;3.78;2.00;;;;;;;;;;5114454;27;20016;-49
2023/03/18 14:31:21;;;;;;;3.45;1.90;;;;;;;;;;5108900;28;20043;-50
2023/03/18 14:33:50;;;;;;;4.45;2.03;;;;;;;;;;5105199;27;20048;-46
2023/03/18 14:36:16;;;;;;;3.67;2.10;;;;;;;;;;5108351;28;20035;-51
2023/03/18 14:38:48;;;;;;;4.35;2.13;;;;;;;;;;5108287;27;20038;-48
2023/03/18 14:41:16;;;;;;;3.95;1.60;;;;;;;;;;5103740;28;20039;-48
2023/03/18 14:44:06;;;;;;;2.97;1.65;;;;;;;;;;5109699;27;20475;-48
2023/03/18 14:46:35;;;;;;;3.67;2.35;;;;;;;;;;5078817;28;20040;-46
2023/03/18 14:49:03;;;;;;;3.83;2.17;;;;;;;;;;5110811;27;20107;-49
2023/03/18 14:51:31;;;;;;;4.50;2.42;;;;;;;;;;5102128;28;20553;-48
2023/03/18 14:54:04;;;;;;;5.50;2.95;;;;;;;;;;5110893;27;20019;-47
2023/03/18 14:56:35;;;;;;;4.60;2.57;;;;;;;;;;5091978;28;20036;-50
2023/03/18 14:59:01;;;;;;;3.95;2.40;;;;;;;;;;5107713;27;20081;-47
2023/03/18 15:01:35;;;;;;;3.92;2.20;;;;;;;;;;5115122;27;20051;-45
2023/03/18 15:04:02;;;;;;;4.82;2.17;;;;;;;;;;5112176;27;20451;-46
2023/03/18 15:06:29;;;;;;;4.53;2.40;;;;;;;;;;5106901;28;20099;-48
2023/03/18 15:08:57;;;;;;;5.13;2.63;;;;;;;;;;5107409;27;20071;-48
2023/03/18 15:11:24;;;;;;;4.53;2.40;;;;;;;;;;5107531;28;20035;-48
2023/03/18 15:13:53;;;;;;;4.50;2.28;;;;;;;;;;5114082;27;20031;-48
2023/03/18 15:16:20;;;;;;;3.15;2.28;;;;;;;;;;5127447;27;20098;-49
2023/03/18 15:18:51;;;;;;;4.93;2.65;;;;;;;;;;5116057;27;20061;-48
2023/03/18 15:21:22;;;;;;;4.50;2.20;;;;;;;;;;5107368;28;20019;-46
2023/03/18 15:23:52;;;;;;;4.68;2.67;;;;;;;;;;5108598;27;20038;-50
2023/03/18 15:26:27;;;;;;;4.85;2.45;;;;;;;;;;5108597;27;20031;-49
2023/03/18 15:28:57;;;;;;;3.40;2.13;;;;;;;;;;5110960;27;20023;-49
2023/03/18 15:31:38;;;;;;;5.75;2.42;;;;;;;;;;5092383;28;20027;-49
2023/03/18 15:34:05;;;;;;;5.10;2.80;;;;;;;;;;5099126;27;20662;-49
2023/03/18 15:36:39;;;;;;;3.75;2.13;;;;;;;;;;5101854;27;20055;-51
2023/03/18 15:39:18;;;;;;;4.47;2.83;;;;;;;;;;5103537;27;20199;-50
2023/03/18 15:41:44;;;;;;;7.13;2.70;;;;;;;;;;5105964;27;20048;-52
2023/03/18 15:44:15;;;;;;;3.22;2.35;;;;;;;;;;5103816;27;20551;-52
2023/03/18 15:46:45;;;;;;;3.40;2.03;;;;;;;;;;5107098;27;20023;-50
2023/03/18 15:49:11;;;;;;;3.63;2.30;;;;;;;;;;5105284;27;20103;-50
2023/03/18 15:51:46;;;;;;;4.05;2.33;;;;;;;;;;5080781;28;20582;-47
2023/03/18 15:54:18;;;;;;;5.32;1.95;;;;;;;;;;5100168;27;20020;-52
2023/03/18 15:56:46;;;;;;;3.33;2.08;;;;;;;;;;5104862;27;20019;-50
2023/03/18 15:59:14;;;;;;;2.70;1.80;;;;;;;;;;5098743;27;20528;-50
2023/03/18 16:01:41;;;;;;;3.83;2.33;;;;;;;;;;5102563;27;20517;-50
2023/03/18 16:04:09;;;;;;;3.10;2.00;;;;;;;;;;5101999;27;20103;-49
2023/03/18 16:06:37;;;;;;;3.75;1.90;;;;;;;;;;5096879;27;20024;-52
2023/03/18 16:09:13;;;;;;;5.63;2.05;;;;;;;;;;5102801;27;20068;-50
2023/03/18 16:11:39;;;;;;;4.05;2.35;;;;;;;;;;5098127;27;20019;-49
2023/03/18 16:14:05;;;;;;;4.68;2.30;;;;;;;;;;5101334;27;20035;-50
2023/03/18 16:16:32;;;;;;;4.68;2.20;;;;;;;;;;5096417;27;20063;-49
2023/03/18 16:18:58;;;;;;;5.55;2.22;;;;;;;;;;5095867;27;20020;-49
2023/03/18 16:21:25;;;;;;;2.20;1.55;;;;;;;;;;5097435;27;20031;-50
2023/03/18 16:23:52;;;;;;;9.20;5.00;;;;;;;;;;5095674;28;20035;-50
2023/03/18 16:26:18;;;;;;;9.18;4.97;;;;;;;;;;5096966;28;20124;-52
2023/03/18 16:28:45;;;;;;;7.78;3.78;;;;;;;;;;5094740;28;20023;-52
2023/03/18 16:31:11;;;;;;;8.30;3.65;;;;;;;;;;5103991;27;20024;-51
2023/03/18 16:33:38;;;;;;;5.68;3.35;;;;;;;;;;5106891;27;20153;-50
2023/03/18 16:36:05;;;;;;;4.45;2.53;;;;;;;;;;5102888;27;20023;-49
2023/03/18 16:38:33;;;;;;;4.65;2.70;;;;;;;;;;5099906;28;20031;-48
2023/03/18 16:40:59;;;;;;;5.68;2.47;;;;;;;;;;5108430;27;20534;-47
2023/03/18 16:43:30;;;;;;;2.75;1.75;;;;;;;;;;5122575;27;20028;-50
2023/03/18 16:45:57;;;;;;;4.55;1.58;;;;;;;;;;5120960;27;20031;-49
2023/03/18 16:48:25;;;;;;;3.60;1.85;;;;;;;;;;5106092;27;20024;-50
2023/03/18 16:50:52;;;;;;;2.22;1.45;;;;;;;;;;5105307;28;20031;-49
2023/03/18 16:53:23;;;;;;;5.35;1.80;;;;;;;;;;5122274;27;20024;-48
2023/03/18 16:55:50;;;;;;;2.38;1.35;;;;;;;;;;5104606;28;20098;-51
2023/03/18 16:58:19;;;;;;;4.72;2.33;;;;;;;;;;5103957;28;20059;-50
2023/03/18 17:00:46;;;;;;;7.22;3.53;;;;;;;;;;5103901;28;20032;-46
2023/03/18 17:03:14;;;;;;;5.35;2.92;;;;;;;;;;5121976;28;20026;-51
2023/03/18 17:05:41;;;;;;;6.30;2.85;;;;;;;;;;5104042;28;20407;-49
2023/03/18 17:08:08;;;;;;;5.95;2.88;;;;;;;;;;5122353;28;20107;-51
2023/03/18 17:10:35;;;;;;;5.95;2.25;;;;;;;;;;5104281;27;20028;-51
2023/03/18 17:13:04;;;;;;;3.72;1.92;;;;;;;;;;5121910;28;20027;-51
2023/03/18 17:15:33;;;;;;;3.58;1.85;;;;;;;;;;5101291;28;20036;-48
2023/03/18 17:17:59;;;;;;;3.38;1.85;;;;;;;;;;5104901;28;20028;-49
2023/03/18 17:20:26;;;;;;;2.67;1.73;;;;;;;;;;5102795;28;20031;-48
2023/03/18 17:22:53;;;;;;;4.25;2.30;;;;;;;;;;5105662;28;20570;-51
2023/03/18 17:25:19;;;;;;;3.63;2.47;;;;;;;;;;5101396;28;20020;-47
2023/03/18 17:27:47;;;;;;;3.38;1.85;;;;;;;;;;5104218;28;20020;-48
2023/03/18 17:30:16;;;;;;;4.57;2.38;;;;;;;;;;5101983;28;20487;-51
2023/03/18 17:32:41;;;;;;;3.85;2.10;;;;;;;;;;5108203;28;20030;-49
2023/03/18 17:35:15;;;;;;;4.18;2.00;;;;;;;;;;5105600;28;20036;-50
2023/03/18 17:37:42;;;;;;;4.77;2.17;;;;;;;;;;5107768;27;20447;-48
2023/03/18 17:40:09;;;;;;;2.90;2.10;;;;;;;;;;5105597;28;20246;-52
2023/03/18 17:42:36;;;;;;;5.18;2.40;;;;;;;;;;5108873;27;20117;-51
2023/03/18 17:45:23;;;;;;;5.72;2.50;;;;;;;;;;5105316;28;20024;-47
2023/03/18 17:47:49;;;;;;;5.32;2.67;;;;;;;;;;5094410;28;20044;-52
2023/03/18 17:50:17;;;;;;;5.25;3.28;;;;;;;;;;5103866;28;20039;-49
2023/03/18 17:52:44;;;;;;;7.70;3.17;;;;;;;;;;5108734;28;20028;-48
2023/03/18 17:55:15;;;;;;;5.10;3.30;;;;;;;;;;5105203;28;20372;-49
2023/03/18 17:57:41;;;;;;;4.32;2.53;;;;;;;;;;5107730;28;20023;-49
2023/03/18 18:00:13;;;;;;;4.35;2.58;;;;;;;;;;5105586;28;20016;-51
2023/03/18 18:02:39;;;;;;;6.03;3.13;;;;;;;;;;5107361;28;20076;-49
2023/03/18 18:05:05;;;;;;;5.80;3.30;;;;;;;;;;5104780;28;20027;-50
2023/03/18 18:07:31;;;;;;;5.20;2.47;;;;;;;;;;5107378;27;20055;-48
2023/03/18 18:09:59;;;;;;;5.50;2.85;;;;;;;;;;5104891;27;20024;-51
2023/03/18 18:12:27;;;;;;;3.97;2.60;;;;;;;;;;5108339;27;20415;-48
2023/03/18 18:14:53;;;;;;;3.55;2.50;;;;;;;;;;5118133;27;20043;-51
2023/03/18 18:17:20;;;;;;;4.35;2.58;;;;;;;;;;5125887;27;20056;-50
2023/03/18 18:19:46;;;;;;;4.18;2.20;;;;;;;;;;5120430;27;20033;-50
2023/03/18 18:22:17;;;;;;;3.88;2.10;;;;;;;;;;5120760;27;20020;-49
2023/03/18 18:24:45;;;;;;;4.65;2.17;;;;;;;;;;5084299;27;20045;-47
2023/03/18 18:27:13;;;;;;;4.57;2.60;;;;;;;;;;5106135;27;20407;-49
2023/03/18 18:29:42;;;;;;;5.88;3.00;;;;;;;;;;5119323;27;20414;-50
2023/03/18 18:32:09;;;;;;;4.15;2.92;;;;;;;;;;5107872;28;20051;-48
2023/03/18 18:34:36;;;;;;;6.22;2.47;;;;;;;;;;5107048;28;20031;-50
2023/03/18 18:37:02;;;;;;;3.60;2.17;;;;;;;;;;5107072;27;20239;-48
2023/03/18 18:39:28;;;;;;;4.53;2.50;;;;;;;;;;5119597;27;20555;-52
2023/03/18 18:41:54;;;;;;;5.93;2.67;;;;;;;;;;5117561;27;20454;-49
2023/03/18 18:44:21;;;;;;;5.00;2.60;;;;;;;;;;5106669;28;20411;-48
2023/03/18 18:46:47;;;;;;;3.63;2.08;;;;;;;;;;5106541;27;20023;-48
2023/03/18 18:49:21;;;;;;;3.95;2.22;;;;;;;;;;5121684;27;20315;-49
2023/03/18 18:51:53;;;;;;;3.90;2.65;;;;;;;;;;5124779;27;20076;-51
2023/03/18 18:54:19;;;;;;;3.92;2.25;;;;;;;;;;5109894;27;20556;-51
2023/03/18 18:56:45;;;;;;;3.28;2.15;;;;;;;;;;5121778;27;20057;-48
2023/03/18 18:59:21;;;;;;;3.38;2.47;;;;;;;;;;5103438;28;20028;-50
2023/03/18 19:01:47;;;;;;;4.13;2.30;;;;;;;;;;5089500;28;20066;-51
2023/03/18 19:04:14;;;;;;;5.03;2.50;;;;;;;;;;5098597;28;20389;-51
2023/03/18 19:06:41;;;;;;;2.22;1.80;;;;;;;;;;5093172;28;20043;-52
2023/03/18 19:09:15;;;;;;;2.85;1.73;;;;;;;;;;5089970;28;20020;-51
2023/03/18 19:11:41;;;;;;;2.35;1.70;;;;;;;;;;5102205;28;20062;-50
2023/03/18 19:14:26;;;;;;;4.00;1.75;;;;;;;;;;5108108;27;20114;-51
2023/03/18 19:16:54;;;;;;;2.95;1.88;;;;;;;;;;5115122;27;20038;-50
2023/03/18 19:19:24;;;;;;;3.38;1.85;;;;;;;;;;5125887;27;20575;-51
2023/03/18 19:21:50;;;;;;;2.67;1.60;;;;;;;;;;5125667;27;20076;-50
2023/03/18 19:24:19;;;;;;;2.88;1.80;;;;;;;;;;5127118;27;20038;-51
2023/03/18 19:26:45;;;;;;;2.78;1.60;;;;;;;;;;5126829;27;20038;-51
2023/03/18 19:29:11;;;;;;;2.80;2.08;;;;;;;;;;5127171;27;20126;-50
2023/03/18 19:31:38;;;;;;;3.50;2.50;;;;;;;;;;5125408;27;20429;-51
2023/03/18 19:34:10;;;;;;;3.13;2.17;;;;;;;;;;5128109;27;20019;-49
2023/03/18 19:36:39;;;;;;;4.00;2.20;;;;;;;;;;5127716;27;20390;-49
2023/03/18 19:39:07;;;;;;;3.35;1.80;;;;;;;;;;5127386;27;20031;-51
2023/03/18 19:41:32;;;;;;;2.92;1.65;;;;;;;;;;5128166;27;20033;-50
2023/03/18 19:44:04;;;;;;;6.05;2.28;;;;;;;;;;5127056;27;20020;-51
2023/03/18 19:46:38;;;;;;;2.40;1.60;;;;;;;;;;5126170;27;20054;-51
2023/03/18 19:49:10;;;;;;;2.97;1.83;;;;;;;;;;5125601;27;20026;-51
2023/03/18 19:51:37;;;;;;;3.58;1.70;;;;;;;;;;5125407;27;20069;-49
2023/03/18 19:54:10;;;;;;;1.80;1.23;;;;;;;;;;5125553;27;20034;-49
2023/03/18 19:56:36;;;;;;;2.58;1.75;;;;;;;;;;5124828;27;20106;-49
2023/03/18 19:59:02;;;;;;;2.38;1.67;;;;;;;;;;5125194;27;20119;-50
2023/03/18 20:01:29;;;;;;;1.70;1.42;;;;;;;;;;5124983;27;20046;-51